createdAt,value
2022-10-17T00:00:45.657Z,75.30
2022-10-17T00:03:12.680Z,74.68
2022-10-17T00:05:44.198Z,73.94
2022-10-17T00:08:12.637Z,75.09
2022-10-17T00:10:40.052Z,74.87
2022-10-17T00:13:07.413Z,75.26
2022-10-17T00:15:34.047Z,75.56
2022-10-17T00:18:01.181Z,75.54
2022-10-17T00:20:30.491Z,75.39
2022-10-17T00:22:57.567Z,76.46
2022-10-17T00:25:24.170Z,76.40
2022-10-17T00:27:50.790Z,76.11
2022-10-17T00:30:18.596Z,77.11
2022-10-17T00:32:45.438Z,77.07
2022-10-17T00:35:12.123Z,77.44
2022-10-17T00:37:38.742Z,77.47
2022-10-17T00:40:09.887Z,78.01
2022-10-17T00:42:36.589Z,78.38
2022-10-17T00:45:26.680Z,78.46
2022-10-17T00:47:58.899Z,78.35
2022-10-17T00:50:26.254Z,78.55
2022-10-17T00:52:53.486Z,78.48
2022-10-17T00:55:31.338Z,78.96
2022-10-17T00:58:02.067Z,79.11
2022-10-17T01:00:28.807Z,79.68
2022-10-17T01:02:56.432Z,80.34
2022-10-17T01:05:23.350Z,79.35
2022-10-17T01:07:52.886Z,79.99
2022-10-17T01:13:07.657Z,79.85
2022-10-17T01:15:45.231Z,80.54
2022-10-17T01:18:39.557Z,79.79
2022-10-17T01:21:23.315Z,79.74
2022-10-17T01:24:08.538Z,80.08
2022-10-17T01:27:12.837Z,80.29
2022-10-17T01:30:12.300Z,79.14
2022-10-17T01:33:14.288Z,80.88
2022-10-17T01:36:06.165Z,80.57
2022-10-17T01:38:41.224Z,79.97
2022-10-17T01:41:23.763Z,79.72
2022-10-17T01:43:59.762Z,78.57
2022-10-17T01:46:38.686Z,79.14
2022-10-17T01:49:08.863Z,79.96
2022-10-17T01:52:00.906Z,78.89
2022-10-17T01:54:37.576Z,78.95
2022-10-17T01:57:08.650Z,78.78
2022-10-17T01:59:42.211Z,78.69
2022-10-17T02:02:10.080Z,78.57
2022-10-17T02:04:37.543Z,78.05
2022-10-17T02:07:12.853Z,78.75
2022-10-17T02:09:39.942Z,78.99
2022-10-17T02:12:06.509Z,78.49
2022-10-17T02:14:51.571Z,78.35
2022-10-17T02:18:02.424Z,78.21
2022-10-17T02:20:50.693Z,78.24
2022-10-17T02:23:20.277Z,78.05
2022-10-17T02:26:02.204Z,78.57
2022-10-17T02:28:50.538Z,78.22
2022-10-17T02:31:22.774Z,78.16
2022-10-17T02:33:59.094Z,79.40
2022-10-17T02:36:32.706Z,80.07
2022-10-17T02:39:01.710Z,79.43
2022-10-17T02:41:30.094Z,79.58
2022-10-17T02:44:00.108Z,80.10
2022-10-17T02:46:41.630Z,79.32
2022-10-17T02:49:20.857Z,79.96
2022-10-17T02:51:50.436Z,79.65
2022-10-17T02:54:23.203Z,80.70
2022-10-17T02:56:59.530Z,79.97
2022-10-17T02:59:29.570Z,80.40
2022-10-17T03:01:56.616Z,80.85
2022-10-17T03:04:23.566Z,80.35
2022-10-17T03:06:50.273Z,80.34
2022-10-17T03:09:19.470Z,80.32
2022-10-17T03:11:46.080Z,80.60
2022-10-17T03:14:17.619Z,79.62
2022-10-17T03:16:44.287Z,79.70
2022-10-17T03:19:13.579Z,80.30
2022-10-17T03:21:40.167Z,79.82
2022-10-17T03:24:07.184Z,79.37
2022-10-17T03:26:33.830Z,78.84
2022-10-17T03:29:02.071Z,79.05
2022-10-17T03:31:28.734Z,78.87
2022-10-17T03:33:55.364Z,78.76
2022-10-17T03:36:22.012Z,79.31
2022-10-17T03:38:57.853Z,78.82
2022-10-17T03:41:24.462Z,78.25
2022-10-17T03:43:53.476Z,79.21
2022-10-17T03:46:20.340Z,79.71
2022-10-17T03:48:46.890Z,79.79
2022-10-17T03:51:13.801Z,79.32
2022-10-17T03:53:44.116Z,79.12
2022-10-17T03:56:20.310Z,78.42
2022-10-17T03:58:47.354Z,78.07
2022-10-17T04:01:17.081Z,77.84
2022-10-17T04:03:44.481Z,77.45
2022-10-17T04:06:12.910Z,77.55
2022-10-17T04:08:39.750Z,77.35
2022-10-17T04:11:08.512Z,77.48
2022-10-17T04:13:35.927Z,76.86
2022-10-17T04:16:08.480Z,76.56
2022-10-17T04:18:52.072Z,76.17
2022-10-17T04:21:23.678Z,75.73
2022-10-17T04:23:58.670Z,75.69
2022-10-17T04:26:28.144Z,75.73
2022-10-17T04:29:01.159Z,75.29
2022-10-17T04:31:27.806Z,76.33
2022-10-17T04:33:54.425Z,74.47
2022-10-17T04:36:21.282Z,75.20
2022-10-17T04:41:31.690Z,75.76
2022-10-17T04:44:00.717Z,75.11
2022-10-17T04:46:27.606Z,74.94
2022-10-17T04:49:15.540Z,74.40
2022-10-17T04:51:44.391Z,74.18
2022-10-17T04:54:11.345Z,73.73
2022-10-17T04:56:50.765Z,73.84
2022-10-17T04:59:17.481Z,73.91
2022-10-17T05:01:45.448Z,73.87
2022-10-17T05:04:12.011Z,72.98
2022-10-17T05:06:38.638Z,73.20
2022-10-17T05:09:05.424Z,72.58
2022-10-17T05:11:32.199Z,72.16
2022-10-17T05:14:02.377Z,72.17
2022-10-17T05:16:29.799Z,72.76
2022-10-17T05:19:00.066Z,72.46
2022-10-17T05:21:30.380Z,72.93
2022-10-17T05:23:57.529Z,72.71
2022-10-17T05:26:24.686Z,72.33
2022-10-17T05:28:52.849Z,72.96
2022-10-17T05:31:22.097Z,73.12
2022-10-17T05:33:48.738Z,72.19
2022-10-17T05:36:16.545Z,72.19
2022-10-17T05:38:43.230Z,71.96
2022-10-17T05:41:10.505Z,71.71
2022-10-17T05:43:38.693Z,72.36
2022-10-17T05:46:09.044Z,72.26
2022-10-17T05:48:42.600Z,72.36
2022-10-17T05:51:12.053Z,72.37
2022-10-17T05:53:42.808Z,72.95
2022-10-17T05:56:12.392Z,71.91
2022-10-17T05:58:55.204Z,71.43
2022-10-17T06:01:24.702Z,71.01
2022-10-17T06:03:53.581Z,71.00
2022-10-17T06:06:22.939Z,71.57
2022-10-17T06:08:49.598Z,70.68
2022-10-17T06:11:16.251Z,70.94
2022-10-17T06:13:51.744Z,70.58
2022-10-17T06:16:18.468Z,70.69
2022-10-17T06:18:45.097Z,70.83
2022-10-17T06:21:15.563Z,70.45
2022-10-17T06:23:44.374Z,70.14
2022-10-17T06:28:58.243Z,70.39
2022-10-17T06:31:34.674Z,70.22
2022-10-17T06:34:01.337Z,69.79
2022-10-17T06:36:34.547Z,70.14
2022-10-17T06:39:01.128Z,68.72
2022-10-17T06:41:27.980Z,68.72
2022-10-17T06:43:54.461Z,68.63
2022-10-17T06:46:21.530Z,68.28
2022-10-17T06:48:48.192Z,68.79
2022-10-17T06:51:15.028Z,68.76
2022-10-17T06:53:41.872Z,68.69
2022-10-17T06:56:10.297Z,68.54
2022-10-17T06:58:39.688Z,68.83
2022-10-17T07:01:11.886Z,68.99
2022-10-17T07:03:46.653Z,69.24
2022-10-17T07:06:13.188Z,69.50
2022-10-17T07:08:43.609Z,69.72
2022-10-17T07:11:12.177Z,69.45
2022-10-17T07:13:39.658Z,69.62
2022-10-17T07:16:06.858Z,69.18
2022-10-17T07:18:33.715Z,68.13
2022-10-17T07:21:00.930Z,67.17
2022-10-17T07:23:28.052Z,66.07
2022-10-17T07:25:59.884Z,64.36
2022-10-17T07:28:26.682Z,63.74
2022-10-17T07:30:54.443Z,63.28
2022-10-17T07:33:22.026Z,62.26
2022-10-17T07:35:49.102Z,62.22
2022-10-17T07:38:16.057Z,61.79
2022-10-17T07:40:43.068Z,61.82
2022-10-17T07:43:10.074Z,61.16
2022-10-17T07:45:36.995Z,61.11
2022-10-17T07:48:04.075Z,60.73
2022-10-17T07:50:31.775Z,60.50
2022-10-17T07:53:05.828Z,59.98
2022-10-17T07:55:32.319Z,59.35
2022-10-17T07:58:00.500Z,58.47
2022-10-17T08:00:28.521Z,57.85
2022-10-17T08:02:55.158Z,57.73
2022-10-17T08:05:21.776Z,56.61
2022-10-17T08:07:48.423Z,56.28
2022-10-17T08:10:16.138Z,55.69
2022-10-17T08:12:42.781Z,54.98
2022-10-17T08:15:10.297Z,54.21
2022-10-17T08:17:38.573Z,54.37
2022-10-17T08:20:06.550Z,54.81
2022-10-17T08:22:33.316Z,54.65
2022-10-17T08:24:59.811Z,53.90
2022-10-17T08:27:27.960Z,53.32
2022-10-17T08:29:54.873Z,52.80
2022-10-17T08:32:23.631Z,53.10
2022-10-17T08:34:50.516Z,52.95
2022-10-17T08:37:17.428Z,53.43
2022-10-17T08:39:44.521Z,53.52
2022-10-17T08:42:32.908Z,54.90
2022-10-17T08:45:19.673Z,56.26
2022-10-17T08:47:49.952Z,56.73
2022-10-17T08:50:39.397Z,58.06
2022-10-17T08:53:22.007Z,57.35
2022-10-17T08:55:53.506Z,57.30
2022-10-17T08:58:33.336Z,57.73
2022-10-17T09:01:42.848Z,57.83
2022-10-17T09:04:46.124Z,58.41
2022-10-17T09:07:22.815Z,58.18
2022-10-17T09:10:21.474Z,56.99
2022-10-17T09:13:13.013Z,53.22
2022-10-17T09:15:55.347Z,51.24
2022-10-17T09:18:33.037Z,51.26
2022-10-17T09:21:21.064Z,50.38
2022-10-17T09:24:09.873Z,50.35
2022-10-17T09:26:44.432Z,51.70
2022-10-17T09:29:18.657Z,51.02
2022-10-17T09:32:02.880Z,48.81
2022-10-17T09:34:31.633Z,47.45
2022-10-17T09:37:00.381Z,48.65
2022-10-17T09:39:29.272Z,48.59
2022-10-17T09:41:59.186Z,47.56
2022-10-17T09:44:58.320Z,47.00
2022-10-17T09:47:47.600Z,46.30
2022-10-17T09:50:27.158Z,46.40
2022-10-17T09:52:55.656Z,45.25
2022-10-17T09:55:39.411Z,46.13
2022-10-17T09:58:07.921Z,47.30
2022-10-17T10:00:41.648Z,45.84
2022-10-17T10:03:20.485Z,47.05
2022-10-17T10:06:06.847Z,48.05
2022-10-17T10:08:49.586Z,48.35
2022-10-17T10:11:17.771Z,46.77
2022-10-17T10:13:46.284Z,46.82
2022-10-17T10:16:32.761Z,46.87
2022-10-17T10:18:59.580Z,46.50
2022-10-17T10:21:27.507Z,45.30
2022-10-17T10:24:03.351Z,45.48
2022-10-17T10:26:33.008Z,47.11
2022-10-17T10:29:20.443Z,46.64
2022-10-17T10:31:48.378Z,47.26
2022-10-17T10:34:27.790Z,44.47
2022-10-17T10:37:17.017Z,43.53
2022-10-17T10:39:50.421Z,44.58
2022-10-17T10:42:25.234Z,44.14
2022-10-17T10:44:54.558Z,44.50
2022-10-17T10:47:28.175Z,43.52
2022-10-17T10:50:25.065Z,42.37
2022-10-17T10:52:56.825Z,41.34
2022-10-17T10:55:50.746Z,42.75
2022-10-17T10:58:35.918Z,42.46
2022-10-17T11:01:23.739Z,41.90
2022-10-17T11:04:02.965Z,42.81
2022-10-17T11:06:36.392Z,43.84
2022-10-17T11:09:16.177Z,41.53
2022-10-17T11:11:48.674Z,40.86
2022-10-17T11:14:26.040Z,42.30
2022-10-17T11:17:05.792Z,41.36
2022-10-17T11:19:43.973Z,42.03
2022-10-17T11:22:23.985Z,42.07
2022-10-17T11:25:00.857Z,42.96
2022-10-17T11:27:31.655Z,42.77
2022-10-17T11:29:58.541Z,43.71
2022-10-17T11:32:32.632Z,45.72
2022-10-17T11:35:07.875Z,45.26
2022-10-17T11:37:40.940Z,44.44
2022-10-17T11:40:21.970Z,45.95
2022-10-17T11:43:04.809Z,44.70
2022-10-17T11:45:36.879Z,43.49
2022-10-17T11:48:44.081Z,43.60
2022-10-17T11:54:17.790Z,43.35
2022-10-17T11:57:08.529Z,41.78
2022-10-17T11:59:58.045Z,43.03
2022-10-17T12:02:36.707Z,43.33
2022-10-17T12:05:33.089Z,43.32
2022-10-17T12:08:18.420Z,43.58
2022-10-17T12:10:53.743Z,43.06
2022-10-17T12:13:29.495Z,43.70
2022-10-17T12:16:17.489Z,43.54
2022-10-17T12:18:44.850Z,43.82
2022-10-17T12:21:11.588Z,43.97
2022-10-17T12:23:39.979Z,44.14
2022-10-17T12:26:09.509Z,44.49
2022-10-17T12:28:44.412Z,44.62
2022-10-17T12:31:29.683Z,44.83
2022-10-17T12:34:04.638Z,45.13
2022-10-17T12:36:31.079Z,44.70
2022-10-17T12:39:03.482Z,45.79
2022-10-17T12:41:39.347Z,46.19
2022-10-17T12:44:15.200Z,46.43
2022-10-17T12:46:51.613Z,45.66
2022-10-17T12:49:48.387Z,44.50
2022-10-17T12:52:31.389Z,44.37
2022-10-17T12:55:12.645Z,44.63
2022-10-17T12:57:55.819Z,43.39
2022-10-17T13:00:29.484Z,44.00
2022-10-17T13:03:21.758Z,45.06
2022-10-17T13:06:13.731Z,43.75
2022-10-17T13:08:49.774Z,42.77
2022-10-17T13:11:25.706Z,42.71
2022-10-17T13:13:59.211Z,43.63
2022-10-17T13:16:35.678Z,44.60
2022-10-17T13:19:11.840Z,45.08
2022-10-17T13:21:38.636Z,45.82
2022-10-17T13:24:29.682Z,46.53
2022-10-17T13:26:56.608Z,45.96
2022-10-17T13:29:25.718Z,45.58
2022-10-17T13:32:05.969Z,45.12
2022-10-17T13:34:34.449Z,45.46
2022-10-17T13:37:04.576Z,46.60
2022-10-17T13:42:27.522Z,47.53
2022-10-17T13:44:55.404Z,48.29
2022-10-17T13:47:29.534Z,49.02
2022-10-17T13:49:58.019Z,48.85
2022-10-17T13:52:28.937Z,47.55
2022-10-17T13:55:06.939Z,47.75
2022-10-17T13:57:33.899Z,47.36
2022-10-17T14:00:15.487Z,45.52
2022-10-17T14:02:42.339Z,45.42
2022-10-17T14:05:18.376Z,44.81
2022-10-17T14:08:11.915Z,44.55
2022-10-17T14:10:41.198Z,45.62
2022-10-17T14:13:19.157Z,45.55
2022-10-17T14:15:46.550Z,46.49
2022-10-17T14:18:26.954Z,47.00
2022-10-17T14:23:43.523Z,48.84
2022-10-17T14:26:17.984Z,49.26
2022-10-17T14:28:47.653Z,49.79
2022-10-17T14:31:25.022Z,50.18
2022-10-17T14:33:53.474Z,50.48
2022-10-17T14:36:29.463Z,50.09
2022-10-17T14:38:56.763Z,50.84
2022-10-17T14:41:42.492Z,51.18
2022-10-17T14:44:20.754Z,51.69
2022-10-17T14:46:51.700Z,52.32
2022-10-17T14:49:28.165Z,52.26
2022-10-17T14:52:33.750Z,52.93
2022-10-17T14:55:20.342Z,52.40
2022-10-17T14:57:46.878Z,53.31
2022-10-17T15:00:19.350Z,52.77
2022-10-17T15:02:47.431Z,53.25
2022-10-17T15:05:14.916Z,52.70
2022-10-17T15:07:42.795Z,52.89
2022-10-17T15:10:28.596Z,53.81
2022-10-17T15:12:57.564Z,54.56
2022-10-17T15:15:32.357Z,54.89
2022-10-17T15:17:59.815Z,54.73
2022-10-17T15:20:28.220Z,55.11
2022-10-17T15:22:55.930Z,55.79
2022-10-17T15:25:23.349Z,56.32
2022-10-17T15:27:50.032Z,55.88
2022-10-17T15:30:22.386Z,56.15
2022-10-17T15:32:49.798Z,56.22
2022-10-17T15:35:17.484Z,55.44
2022-10-17T15:37:46.818Z,56.26
2022-10-17T15:40:22.354Z,57.04
2022-10-17T15:42:49.318Z,56.20
2022-10-17T15:45:18.737Z,55.92
2022-10-17T15:47:55.434Z,56.93
2022-10-17T15:50:22.638Z,57.86
2022-10-17T15:52:51.125Z,57.54
2022-10-17T15:55:18.566Z,57.23
2022-10-17T15:57:47.520Z,58.30
2022-10-17T16:00:22.164Z,59.17
2022-10-17T16:02:49.861Z,60.51
2022-10-17T16:05:19.685Z,60.95
2022-10-17T16:07:46.919Z,60.56
2022-10-17T16:10:14.860Z,59.97
2022-10-17T16:12:41.530Z,60.28
2022-10-17T16:15:15.066Z,60.07
2022-10-17T16:17:41.887Z,59.94
2022-10-17T16:20:08.771Z,59.83
2022-10-17T16:22:38.283Z,59.69
2022-10-17T16:25:09.954Z,59.45
2022-10-17T16:27:37.858Z,58.79
2022-10-17T16:30:06.646Z,58.74
2022-10-17T16:32:34.253Z,58.04
2022-10-17T16:35:01.675Z,58.29
2022-10-17T16:37:28.512Z,58.22
2022-10-17T16:39:55.073Z,58.59
2022-10-17T16:42:21.946Z,59.24
2022-10-17T16:44:50.539Z,59.64
2022-10-17T16:47:18.443Z,59.88
2022-10-17T16:49:45.547Z,60.14
2022-10-17T16:52:12.186Z,60.58
2022-10-17T16:54:38.729Z,61.77
2022-10-17T16:57:05.530Z,62.50
2022-10-17T16:59:32.046Z,62.66
2022-10-17T17:01:58.560Z,63.08
2022-10-17T17:04:25.137Z,63.36
2022-10-17T17:06:51.807Z,63.66
2022-10-17T17:09:18.336Z,64.79
2022-10-17T17:11:44.827Z,66.60
2022-10-17T17:14:12.596Z,68.14
2022-10-17T17:16:39.154Z,66.30
2022-10-17T17:19:12.601Z,66.65
2022-10-17T17:21:39.521Z,66.03
2022-10-17T17:24:11.689Z,68.10
2022-10-17T17:26:38.970Z,66.80
2022-10-17T17:29:05.726Z,67.02
2022-10-17T17:31:34.137Z,66.89
2022-10-17T17:34:01.491Z,67.29
2022-10-17T17:36:31.441Z,67.77
2022-10-17T17:39:01.362Z,67.46
2022-10-17T17:41:28.746Z,68.49
2022-10-17T17:43:58.876Z,67.65
2022-10-17T17:46:25.975Z,66.72
2022-10-17T17:48:54.014Z,66.20
2022-10-17T17:51:28.424Z,66.31
2022-10-17T17:53:56.557Z,66.60
2022-10-17T17:56:25.780Z,66.64
2022-10-17T17:59:00.719Z,67.67
2022-10-17T18:01:30.350Z,68.42
2022-10-17T18:04:01.712Z,68.09
2022-10-17T18:06:29.067Z,68.85
2022-10-17T18:08:58.116Z,68.70
2022-10-17T18:11:26.508Z,68.16
2022-10-17T18:13:58.147Z,68.45
2022-10-17T18:16:26.832Z,67.78
2022-10-17T18:19:04.122Z,68.45
2022-10-17T18:21:33.498Z,68.94
2022-10-17T18:24:00.455Z,68.77
2022-10-17T18:26:27.641Z,69.22
2022-10-17T18:28:54.529Z,68.73
2022-10-17T18:31:28.642Z,68.99
2022-10-17T18:33:56.950Z,69.16
2022-10-17T18:36:26.021Z,70.16
2022-10-17T18:38:56.344Z,70.33
2022-10-17T18:41:25.910Z,70.12
2022-10-17T18:43:55.358Z,69.63
2022-10-17T18:46:28.425Z,69.80
2022-10-17T18:48:56.212Z,70.62
2022-10-17T18:54:43.627Z,70.32
2022-10-17T18:57:10.554Z,70.77
2022-10-17T18:59:38.089Z,70.66
2022-10-17T19:02:04.943Z,70.91
2022-10-17T19:04:31.738Z,71.23
2022-10-17T19:06:58.488Z,71.54
2022-10-17T19:09:25.387Z,71.42
2022-10-17T19:11:53.252Z,72.40
2022-10-17T19:14:19.862Z,72.79
2022-10-17T19:16:49.128Z,73.43
2022-10-17T19:19:21.091Z,73.11
2022-10-17T19:21:49.927Z,73.71
2022-10-17T19:24:27.915Z,73.34
2022-10-17T19:26:58.997Z,73.94
2022-10-17T19:29:28.123Z,73.48
2022-10-17T19:34:22.500Z,73.39
2022-10-17T19:36:49.299Z,73.99
2022-10-17T19:39:19.148Z,73.90
2022-10-17T19:41:47.726Z,73.82
2022-10-17T19:44:16.104Z,74.82
2022-10-17T19:46:46.859Z,75.01
2022-10-17T19:49:14.208Z,75.27
2022-10-17T19:51:42.006Z,75.37
2022-10-17T19:54:09.491Z,75.45
2022-10-17T19:56:38.113Z,75.41
2022-10-17T19:59:08.465Z,75.34
2022-10-17T20:01:41.326Z,75.33
2022-10-17T20:04:09.367Z,74.68
2022-10-17T20:06:36.270Z,74.91
2022-10-17T20:09:04.343Z,74.98
2022-10-17T20:11:31.043Z,75.86
2022-10-17T20:14:00.163Z,75.54
2022-10-17T20:16:29.849Z,75.49
2022-10-17T20:19:01.411Z,75.28
2022-10-17T20:21:31.591Z,75.55
2022-10-17T20:23:59.907Z,74.94
2022-10-17T20:26:42.867Z,74.41
2022-10-17T20:29:15.049Z,75.36
2022-10-17T20:31:43.201Z,75.76
2022-10-17T20:34:13.744Z,75.46
2022-10-17T20:36:40.758Z,74.74
2022-10-17T20:39:07.871Z,74.42
2022-10-17T20:41:34.854Z,74.62
2022-10-17T20:44:04.634Z,74.26
2022-10-17T20:46:44.689Z,74.80
2022-10-17T20:49:20.382Z,74.89
2022-10-17T20:51:46.979Z,74.46
2022-10-17T20:54:13.631Z,74.20
2022-10-17T20:57:01.102Z,73.71
2022-10-17T20:59:39.032Z,73.93
2022-10-17T21:02:06.610Z,73.54
2022-10-17T21:04:45.895Z,74.21
2022-10-17T21:07:13.237Z,73.25
2022-10-17T21:09:40.004Z,73.56
2022-10-17T21:12:06.935Z,73.78
2022-10-17T21:14:33.726Z,74.31
2022-10-17T21:17:04.725Z,74.75
2022-10-17T21:19:31.936Z,73.49
2022-10-17T21:21:58.539Z,74.13
2022-10-17T21:24:25.114Z,74.15
2022-10-17T21:26:55.531Z,73.08
2022-10-17T21:29:23.352Z,72.18
2022-10-17T21:31:50.340Z,71.53
2022-10-17T21:34:24.597Z,72.45
2022-10-17T21:36:52.025Z,73.03
2022-10-17T21:39:18.910Z,72.87
2022-10-17T21:41:45.514Z,71.55
2022-10-17T21:44:14.949Z,70.92
2022-10-17T21:46:42.315Z,70.34
2022-10-17T21:49:10.697Z,70.39
2022-10-17T21:51:37.689Z,71.12
2022-10-17T21:54:05.780Z,71.30
2022-10-17T21:56:34.729Z,70.99
2022-10-17T21:59:01.330Z,71.23
2022-10-17T22:01:33.337Z,70.79
2022-10-17T22:04:02.715Z,70.57
2022-10-17T22:06:40.563Z,70.36
2022-10-17T22:09:14.490Z,71.21
2022-10-17T22:11:41.643Z,69.81
2022-10-17T22:14:12.579Z,69.85
2022-10-17T22:16:39.487Z,69.78
2022-10-17T22:19:07.513Z,69.73
2022-10-17T22:21:36.207Z,69.63
2022-10-17T22:24:06.067Z,70.84
2022-10-17T22:26:36.398Z,70.06
2022-10-17T22:29:04.571Z,70.65
2022-10-17T22:31:31.765Z,71.07
2022-10-17T22:33:58.413Z,70.31
2022-10-17T22:36:25.119Z,69.85
2022-10-17T22:38:52.041Z,70.46
2022-10-17T22:41:18.822Z,71.01
2022-10-17T22:43:45.405Z,71.15
2022-10-17T22:46:13.755Z,71.54
2022-10-17T22:48:40.574Z,70.56
2022-10-17T22:51:07.460Z,69.93
2022-10-17T22:53:35.184Z,70.23
2022-10-17T22:56:10.744Z,70.38
2022-10-17T22:58:37.772Z,70.58
2022-10-17T23:01:06.343Z,71.05
2022-10-17T23:03:33.797Z,71.12
2022-10-17T23:06:00.795Z,71.87
2022-10-17T23:08:28.466Z,72.57
2022-10-17T23:10:55.190Z,71.20
2022-10-17T23:13:22.083Z,70.90
2022-10-17T23:15:56.732Z,70.87
2022-10-17T23:18:25.603Z,70.18
2022-10-17T23:20:53.138Z,70.08
2022-10-17T23:23:20.769Z,69.52
2022-10-17T23:25:51.543Z,69.54
2022-10-17T23:28:18.615Z,69.77
2022-10-17T23:30:45.409Z,69.64
2022-10-17T23:33:13.238Z,69.74
2022-10-17T23:35:40.570Z,69.64
2022-10-17T23:38:07.358Z,69.97
2022-10-17T23:40:35.356Z,70.18
2022-10-17T23:43:02.823Z,70.37
2022-10-17T23:45:31.303Z,70.31
2022-10-17T23:48:01.183Z,70.06
2022-10-17T23:50:27.726Z,69.62
2022-10-17T23:52:54.294Z,68.85
2022-10-17T23:55:20.895Z,69.91
2022-10-17T23:57:47.507Z,69.53
